Terminal Aerodrome Forecast
Issued by NWS Duluth, MN

Home | Current Version | Previous Version | Text Only | Print | Product List | Glossary On
Versions: 1 2 3 4 5 6 7 8 9 10 11 12 13 14 15 16 17 18 19 20 21 22 23 24 25
000
FTUS43 KDLH 232100 AAA
TAFDLH
TAF AMD
KDLH 232117Z 2321/2418 02005KT 1SM -SN BR BKN007 BKN012 OVC025
     FM232300 03010KT 4SM -SN BR OVC008
     FM240300 34007KT 6SM -SN OVC012
     FM240600 33006KT P6SM OVC015=

USA.gov is the U.S. government's official web portal to all federal, state and local government web resources and services.